Time;durP1;ratioP1;P1;durP2;ratioP2;P2;SDS_P1;SDS_P2;PMS_P1;PMS_P2;Temp;Humidity;BMP_temperature;BMP_pressure;BME280_temperature;BME280_humidity;BME280_pressure;Samples;Min_cycle;Max_cycle;Signal;HPM_P1;HPM_P2
2023/08/14 00:01:43;;;;;;;6.50;5.90;;;20.80;99.90;;;20.97;97.68;98044.69;4949309;29;20460;-71
2023/08/14 00:04:10;;;;;;;7.23;6.63;;;20.80;99.90;;;21.01;97.61;98045.78;4965500;28;20453;-69
2023/08/14 00:06:39;;;;;;;8.67;7.63;;;20.80;99.90;;;20.98;97.78;98038.09;4940022;28;20508;-70
2023/08/14 00:09:06;;;;;;;8.27;7.50;;;20.70;99.90;;;21.07;97.02;98039.13;4941011;29;20530;-69
2023/08/14 00:11:33;;;;;;;7.13;6.53;;;20.80;99.90;;;20.93;97.58;98039.75;4940092;29;20508;-70
2023/08/14 00:14:00;;;;;;;6.47;5.87;;;20.80;99.90;;;20.99;97.25;98046.03;4944277;29;20481;-69
2023/08/14 00:16:28;;;;;;;7.40;6.80;;;20.80;99.90;;;21.07;96.45;98036.38;4949400;28;20513;-70
2023/08/14 00:18:56;;;;;;;6.93;6.33;;;20.80;99.90;;;21.16;96.05;98037.44;4945807;29;20488;-70
2023/08/14 00:21:23;;;;;;;7.00;6.40;;;20.80;99.90;;;21.17;95.94;98050.06;4948692;28;20458;-70
2023/08/14 00:23:52;;;;;;;7.47;6.77;;;20.80;99.90;;;20.86;96.34;98010.97;4934609;29;20454;-68
2023/08/14 00:26:19;;;;;;;8.23;7.53;;;20.80;99.90;;;21.12;96.27;98035.53;4942274;29;20455;-68
2023/08/14 00:28:46;;;;;;;7.37;6.77;;;20.80;99.90;;;21.17;95.91;98043.75;4949059;28;20486;-69
2023/08/14 00:31:13;;;;;;;7.20;6.60;;;20.90;99.90;;;21.30;94.45;98053.25;4956148;28;21189;-69
2023/08/14 00:33:41;;;;;;;6.63;6.03;;;20.90;99.90;;;21.14;95.86;98039.63;4944820;29;20954;-70
2023/08/14 00:36:08;;;;;;;6.63;6.13;;;20.90;99.90;;;20.99;96.63;98047.97;4942790;28;20456;-69
2023/08/14 00:38:35;;;;;;;8.27;7.47;;;20.90;99.90;;;21.00;96.63;98033.97;4959996;28;20456;-69
2023/08/14 00:41:04;;;;;;;8.00;7.40;;;20.80;99.90;;;21.00;96.75;98038.63;4933458;29;20458;-70
2023/08/14 00:43:31;;;;;;;7.60;6.90;;;20.80;99.90;;;20.97;96.96;98034.53;4945295;29;20467;-69
2023/08/14 00:45:59;;;;;;;7.53;6.83;;;20.80;99.90;;;20.74;97.45;97994.81;4949886;28;20452;-69
2023/08/14 00:48:26;;;;;;;7.53;6.77;;;20.70;99.90;;;20.95;97.31;98032.06;4934064;29;20549;-69
2023/08/14 00:50:54;;;;;;;8.40;7.47;;;20.70;99.90;;;21.08;96.75;98016.06;4933191;29;20507;-69
2023/08/14 00:53:22;;;;;;;7.10;6.50;;;20.70;99.90;;;21.07;96.72;98014.41;4939576;29;20504;-68
2023/08/14 00:55:49;;;;;;;7.10;6.50;;;20.80;99.90;;;21.05;96.78;98013.88;4934897;29;20462;-69
2023/08/14 00:58:18;;;;;;;7.27;6.77;;;20.70;99.90;;;21.02;96.94;98019.97;4937820;29;20470;-68
2023/08/14 01:00:45;;;;;;;6.90;6.30;;;20.70;99.90;;;20.95;97.09;98012.84;4951849;29;20488;-69
2023/08/14 01:03:13;;;;;;;6.80;6.30;;;20.80;99.90;;;21.14;96.21;98023.16;4935055;28;20953;-70
2023/08/14 01:05:40;;;;;;;7.03;6.43;;;20.80;99.90;;;20.98;96.72;98010.63;4942161;29;20496;-70
2023/08/14 01:08:07;;;;;;;6.90;6.30;;;20.80;99.90;;;21.13;96.13;98016.00;4948322;28;20463;-69
2023/08/14 01:10:49;;;;;;;8.87;7.33;;;20.80;99.90;;;21.18;97.30;98026.16;4937798;29;20953;-70
2023/08/14 01:13:27;;;;;;;10.67;8.60;;;20.90;99.90;;;20.97;100.00;98006.22;4952694;29;20499;-70
2023/08/14 01:15:58;;;;;;;8.57;7.73;;;20.90;99.90;;;20.70;100.00;97999.22;4950993;29;20461;-69
2023/08/14 01:18:27;;;;;;;8.23;7.43;;;20.70;99.90;;;20.17;100.00;97929.22;4935167;29;20496;-68
2023/08/14 01:21:11;;;;;;;9.00;8.20;;;20.60;99.90;;;20.67;100.00;97998.69;4942063;29;20452;-69
2023/08/14 01:23:50;;;;;;;8.97;8.10;;;20.50;99.90;;;20.77;100.00;98007.97;4954875;28;20524;-70
2023/08/14 01:26:19;;;;;;;8.40;7.67;;;20.50;99.90;;;20.75;100.00;98012.94;4944668;28;20463;-68
2023/08/14 01:28:46;;;;;;;9.50;8.60;;;20.50;99.90;;;20.69;100.00;98005.81;4939362;29;20449;-69
2023/08/14 01:31:13;;;;;;;8.10;7.20;;;20.50;99.90;;;20.74;100.00;98003.84;4955663;28;20491;-68
2023/08/14 01:33:40;;;;;;;8.70;8.00;;;20.50;99.90;;;20.79;100.00;98008.50;4954409;28;20484;-68
2023/08/14 01:36:17;;;;;;;9.87;8.87;;;20.50;99.90;;;20.67;100.00;98004.16;4951966;28;20512;-68
2023/08/14 01:38:57;;;;;;;9.47;8.67;;;20.40;99.90;;;20.53;100.00;98005.88;4945502;29;20448;-68
2023/08/14 01:41:29;;;;;;;9.37;8.60;;;20.40;99.90;;;20.60;100.00;98003.66;4932880;29;20451;-69
2023/08/14 01:43:59;;;;;;;8.87;8.07;;;20.40;99.90;;;20.56;100.00;98005.34;4935553;29;20519;-68
2023/08/14 01:46:27;;;;;;;9.20;8.33;;;20.40;99.90;;;20.57;100.00;97998.75;4933531;29;20451;-68
2023/08/14 01:48:57;;;;;;;9.50;8.60;;;20.40;99.90;;;20.52;100.00;98001.50;4950400;28;20453;-68
2023/08/14 01:51:25;;;;;;;9.60;8.50;;;20.40;99.90;;;20.65;100.00;98011.06;4947515;29;20554;-69
2023/08/14 01:53:53;;;;;;;10.70;8.53;;;20.40;99.90;;;20.47;100.00;98005.09;4948353;28;20456;-69
2023/08/14 01:56:20;;;;;;;9.50;8.70;;;20.30;99.90;;;20.44;100.00;98002.91;4937134;29;20939;-68
2023/08/14 01:58:48;;;;;;;9.60;8.70;;;20.30;99.90;;;20.35;100.00;97999.91;4936887;29;20474;-69
2023/08/14 02:01:15;;;;;;;10.20;9.30;;;20.20;99.90;;;20.29;100.00;98001.06;4950202;29;20846;-69
2023/08/14 02:03:42;;;;;;;10.30;9.37;;;20.20;99.90;;;20.38;100.00;98010.31;4940949;29;20956;-68
2023/08/14 02:06:09;;;;;;;9.90;9.03;;;20.20;99.90;;;20.36;100.00;98007.06;4944275;29;20499;-70
2023/08/14 02:08:37;;;;;;;10.90;9.90;;;20.10;99.90;;;20.42;100.00;98018.03;4936976;29;20463;-67
2023/08/14 02:11:08;;;;;;;10.17;9.13;;;20.10;99.90;;;20.38;100.00;98004.84;4938179;29;20815;-69
2023/08/14 02:13:35;;;;;;;10.93;9.90;;;20.10;99.90;;;20.33;100.00;98010.34;4950316;28;20546;-68
2023/08/14 02:16:04;;;;;;;11.00;9.67;;;20.10;99.90;;;20.36;100.00;98012.53;4951268;28;20515;-68
2023/08/14 02:18:32;;;;;;;10.27;9.37;;;20.10;99.90;;;20.30;100.00;98010.94;4951239;29;21008;-68
2023/08/14 02:20:59;;;;;;;11.87;10.80;;;20.10;99.90;;;20.37;100.00;98011.44;4937095;29;20558;-67
2023/08/14 02:23:27;;;;;;;11.73;10.63;;;20.10;99.90;;;20.43;100.00;98005.94;4943082;29;20464;-67
2023/08/14 02:25:55;;;;;;;10.90;9.90;;;20.20;99.90;;;20.39;100.00;98014.72;4964601;28;20981;-70
2023/08/14 02:28:22;;;;;;;11.00;10.10;;;20.10;99.90;;;20.22;100.00;98003.25;4968292;28;20537;-69
2023/08/14 02:30:50;;;;;;;13.60;10.07;;;20.10;99.90;;;20.17;100.00;98006.03;4953465;29;20466;-68
2023/08/14 02:33:18;;;;;;;11.00;9.90;;;20.00;99.90;;;20.09;100.00;98000.03;4961409;28;20540;-69
2023/08/14 02:35:46;;;;;;;11.47;10.47;;;20.00;99.90;;;19.91;100.00;97974.00;4969515;28;20459;-68
2023/08/14 02:38:13;;;;;;;11.23;10.10;;;19.90;99.90;;;20.30;100.00;98015.56;4944680;29;20817;-68
2023/08/14 02:40:40;;;;;;;10.27;9.27;;;20.00;99.90;;;20.30;100.00;98018.31;4941172;28;20971;-69
2023/08/14 02:43:07;;;;;;;12.20;11.07;;;20.00;99.90;;;20.19;100.00;98021.13;4935618;29;20859;-68
2023/08/14 02:45:35;;;;;;;15.37;10.03;;;20.00;99.90;;;20.24;100.00;98017.50;4951097;28;20514;-68
2023/08/14 02:48:02;;;;;;;11.03;9.90;;;20.00;99.90;;;20.28;100.00;98023.25;4950905;28;20461;-69
2023/08/14 02:50:30;;;;;;;10.77;9.67;;;20.00;99.90;;;20.19;100.00;98010.13;4937129;29;20451;-69
2023/08/14 02:52:57;;;;;;;14.03;12.60;;;20.00;99.90;;;20.27;100.00;98005.16;4946217;28;20632;-68
2023/08/14 02:55:25;;;;;;;11.00;9.93;;;20.00;99.90;;;20.14;100.00;98001.09;4950939;28;20505;-69
2023/08/14 02:57:53;;;;;;;11.87;10.77;;;19.90;99.90;;;20.03;100.00;97979.19;4936319;29;20473;-69
2023/08/14 03:00:20;;;;;;;11.90;10.87;;;19.90;99.90;;;19.97;100.00;97969.34;4944839;29;20491;-68
2023/08/14 03:02:48;;;;;;;11.20;10.20;;;19.90;99.90;;;20.02;100.00;97963.84;4952281;29;20975;-68
2023/08/14 03:05:15;;;;;;;11.30;10.13;;;19.90;99.90;;;19.81;100.00;97955.66;4941424;28;20464;-71
2023/08/14 03:07:43;;;;;;;11.97;10.77;;;19.90;99.90;;;19.91;100.00;97954.78;4938733;29;20445;-69
2023/08/14 03:10:10;;;;;;;11.33;10.37;;;19.90;99.90;;;19.92;100.00;97945.50;4959378;28;20586;-69
2023/08/14 03:12:37;;;;;;;11.00;10.00;;;19.90;99.90;;;19.96;100.00;97945.78;4943747;29;20993;-68
2023/08/14 03:15:06;;;;;;;10.87;9.80;;;19.90;99.90;;;19.85;100.00;97944.13;4935861;29;20459;-68
2023/08/14 03:17:33;;;;;;;11.20;10.30;;;19.80;99.90;;;19.76;100.00;97947.41;4935759;29;20944;-69
2023/08/14 03:20:01;;;;;;;10.43;9.53;;;19.80;99.90;;;19.85;100.00;97938.63;4936452;29;20482;-66
2023/08/14 03:22:28;;;;;;;11.83;10.37;;;19.80;99.90;;;19.84;100.00;97940.53;4949358;29;20501;-68
2023/08/14 03:24:56;;;;;;;11.03;9.90;;;19.80;99.90;;;19.85;100.00;97952.34;4937159;29;20464;-70
2023/08/14 03:27:23;;;;;;;9.93;9.03;;;19.80;99.90;;;19.77;100.00;97949.06;4935662;29;20862;-69
2023/08/14 03:29:51;;;;;;;11.67;10.10;;;19.70;99.90;;;19.84;100.00;97953.44;4935528;29;20521;-68
2023/08/14 03:32:18;;;;;;;9.87;8.93;;;19.70;99.90;;;19.77;100.00;97960.03;4934472;29;20506;-68
2023/08/14 03:34:45;;;;;;;10.43;9.43;;;19.70;99.90;;;19.78;100.00;97953.44;4946634;29;20478;-68
2023/08/14 03:37:12;;;;;;;11.23;10.23;;;19.60;99.90;;;19.85;100.00;97963.31;4945001;29;20463;-68
2023/08/14 03:39:40;;;;;;;10.93;9.93;;;19.70;99.90;;;19.71;100.00;97954.81;4935685;29;20480;-69
2023/08/14 03:42:09;;;;;;;10.70;9.60;;;19.60;99.90;;;19.69;100.00;97955.13;4940603;29;20460;-68
2023/08/14 03:44:36;;;;;;;11.03;9.90;;;19.60;99.90;;;19.57;100.00;97946.38;4940670;28;20451;-68
2023/08/14 03:47:03;;;;;;;10.40;9.50;;;19.60;99.90;;;19.65;100.00;97963.06;4935131;29;20515;-68
2023/08/14 03:49:30;;;;;;;10.50;9.60;;;19.60;99.90;;;19.66;100.00;97958.41;4937861;29;20495;-68
2023/08/14 03:51:58;;;;;;;11.87;9.27;;;19.60;99.90;;;19.70;100.00;97962.25;4934335;29;20528;-69
2023/08/14 03:54:25;;;;;;;11.53;10.50;;;19.60;99.90;;;19.70;100.00;97959.50;4935109;29;20457;-68
2023/08/14 03:56:52;;;;;;;11.27;10.20;;;19.60;99.90;;;19.64;100.00;97966.91;4949693;28;21003;-70
2023/08/14 03:59:20;;;;;;;13.33;12.03;;;19.50;99.90;;;19.63;100.00;97973.47;4961024;28;20462;-69
2023/08/14 04:01:47;;;;;;;10.37;9.47;;;19.50;99.90;;;19.54;100.00;97967.75;4951121;29;20224;-67
2023/08/14 04:04:15;;;;;;;9.93;9.07;;;19.50;99.90;;;19.67;100.00;97971.81;4943008;29;20554;-68
2023/08/14 04:06:44;;;;;;;12.23;8.90;;;19.50;99.90;;;19.67;100.00;97971.03;4939436;28;20850;-68
2023/08/14 04:09:11;;;;;;;9.37;8.57;;;19.50;99.90;;;19.75;100.00;97973.19;4948932;28;20467;-68
2023/08/14 04:11:38;;;;;;;9.70;8.90;;;19.50;99.90;;;19.66;100.00;97974.88;4939582;29;20562;-68
2023/08/14 04:14:05;;;;;;;10.50;9.07;;;19.60;99.90;;;19.67;100.00;97981.97;4949584;28;20457;-68
2023/08/14 04:16:43;;;;;;;10.97;9.50;;;19.50;99.90;;;19.67;100.00;97976.50;4938731;29;20480;-67
2023/08/14 04:19:14;;;;;;;10.20;9.13;;;19.60;99.90;;;19.65;100.00;97970.47;4947073;29;20478;-69
2023/08/14 04:21:42;;;;;;;10.97;9.87;;;19.60;99.90;;;19.60;100.00;97976.78;4934690;29;20553;-68
2023/08/14 04:24:10;;;;;;;11.67;9.77;;;19.60;99.90;;;19.60;100.00;97971.31;4933911;29;20458;-68
2023/08/14 04:26:37;;;;;;;11.70;8.90;;;19.50;99.90;;;19.61;100.00;97981.16;4932582;29;20857;-69
2023/08/14 04:29:06;;;;;;;9.30;8.50;;;19.50;99.90;;;19.62;100.00;97985.53;4933441;29;20509;-68
2023/08/14 04:31:34;;;;;;;9.60;8.80;;;19.60;99.90;;;19.56;100.00;97974.88;4944023;29;20456;-69
2023/08/14 04:34:02;;;;;;;11.37;10.37;;;19.60;99.90;;;19.56;100.00;97983.88;4944987;28;20963;-69
2023/08/14 04:36:31;;;;;;;10.27;9.37;;;19.50;99.90;;;19.65;100.00;98000.63;4951754;29;21017;-69
2023/08/14 04:38:58;;;;;;;11.80;8.90;;;19.50;99.90;;;19.66;100.00;98003.06;4948864;29;20454;-68
2023/08/14 04:41:27;;;;;;;10.37;9.47;;;19.60;99.90;;;19.60;100.00;97992.38;4951869;28;20582;-68
2023/08/14 04:43:54;;;;;;;11.50;10.40;;;19.60;99.90;;;19.62;100.00;97979.22;4959862;28;20451;-70
2023/08/14 04:46:30;;;;;;;9.80;8.80;;;19.60;99.90;;;19.67;100.00;97979.25;4934140;29;20466;-68
2023/08/14 04:49:00;;;;;;;11.03;9.43;;;19.50;99.90;;;19.64;100.00;97968.84;4938711;29;20939;-69
2023/08/14 04:51:28;;;;;;;10.10;9.10;;;19.60;99.90;;;19.62;100.00;97969.09;4947686;28;20455;-68
2023/08/14 04:53:56;;;;;;;10.80;9.80;;;19.50;99.90;;;19.64;100.00;97966.09;4933782;29;20467;-68
2023/08/14 04:56:23;;;;;;;11.00;10.10;;;19.50;99.90;;;19.36;100.00;97914.34;4933890;29;20451;-69
2023/08/14 04:58:52;;;;;;;12.07;10.70;;;19.60;99.90;;;19.65;100.00;97949.38;4933952;29;20964;-68
2023/08/14 05:01:19;;;;;;;10.20;9.20;;;19.60;99.90;;;19.65;100.00;97956.78;4939584;29;20534;-68
2023/08/14 05:03:46;;;;;;;9.93;8.93;;;19.60;99.90;;;19.72;100.00;97960.03;4938089;29;20472;-67
2023/08/14 05:06:15;;;;;;;10.87;9.90;;;19.60;99.90;;;19.70;100.00;97967.72;4934249;28;20520;-68
2023/08/14 05:08:44;;;;;;;10.43;9.53;;;19.50;99.90;;;19.69;100.00;97977.03;4952459;29;20461;-68
2023/08/14 05:11:11;;;;;;;11.70;10.50;;;19.50;99.90;;;19.72;100.00;97964.72;4933611;28;20544;-69
2023/08/14 05:13:44;;;;;;;11.90;10.90;;;19.60;99.90;;;19.68;100.00;97967.97;4959122;28;20452;-67
2023/08/14 05:16:11;;;;;;;10.43;9.40;;;19.60;99.90;;;19.73;100.00;97964.41;4956340;28;20518;-67
2023/08/14 05:18:39;;;;;;;10.50;9.43;;;19.60;99.90;;;19.74;100.00;97968.81;4944264;29;20459;-69
2023/08/14 05:21:06;;;;;;;10.10;9.30;;;19.60;99.90;;;19.61;100.00;97955.66;4948740;29;20913;-69
2023/08/14 05:23:34;;;;;;;10.77;9.77;;;19.60;99.90;;;19.59;100.00;97946.91;4949325;28;20518;-68
2023/08/14 05:26:02;;;;;;;9.77;8.83;;;19.60;99.90;;;19.66;100.00;97961.16;4943446;28;21007;-69
2023/08/14 05:28:29;;;;;;;9.33;8.50;;;19.60;99.90;;;19.66;100.00;97958.41;4933433;29;20523;-69
2023/08/14 05:30:56;;;;;;;10.10;7.87;;;19.60;99.90;;;19.85;100.00;97949.59;4932673;29;20458;-69
2023/08/14 05:33:23;;;;;;;10.13;8.33;;;19.70;99.90;;;19.84;100.00;97947.97;4958246;28;21021;-67
2023/08/14 05:35:50;;;;;;;9.90;8.90;;;19.70;99.90;;;19.84;100.00;97950.69;4941315;29;20938;-69
2023/08/14 05:38:18;;;;;;;10.10;8.90;;;19.70;99.90;;;19.64;100.00;97933.22;4956049;28;20456;-68
2023/08/14 05:40:46;;;;;;;9.83;8.77;;;19.70;99.90;;;19.54;100.00;97928.56;4936240;29;20485;-68
2023/08/14 05:43:13;;;;;;;9.27;8.47;;;19.60;99.90;;;19.72;100.00;97929.09;4941797;28;20521;-67
2023/08/14 05:45:44;;;;;;;9.63;8.73;;;19.70;99.90;;;19.72;100.00;97940.84;4933654;29;20488;-69
2023/08/14 05:48:12;;;;;;;10.13;8.10;;;19.70;99.90;;;19.85;100.00;97949.59;4933556;29;20947;-68
2023/08/14 05:50:40;;;;;;;9.10;8.37;;;19.80;99.90;;;19.89;100.00;97950.69;4931855;29;20451;-67
2023/08/14 05:53:08;;;;;;;9.73;9.03;;;19.80;99.90;;;19.95;100.00;97955.09;4932452;29;20953;-68
2023/08/14 05:55:38;;;;;;;9.67;8.83;;;19.80;99.90;;;19.42;100.00;97887.75;4945345;29;20822;-68
2023/08/14 05:58:07;;;;;;;9.80;8.80;;;19.80;99.90;;;19.89;100.00;97958.91;4950890;28;20454;-68
2023/08/14 06:00:35;;;;;;;10.57;8.83;;;19.90;99.90;;;19.83;100.00;97941.66;4946758;28;20486;-68
2023/08/14 06:03:03;;;;;;;10.73;9.30;;;19.90;99.90;;;19.90;100.00;97933.97;4948697;29;20944;-68
2023/08/14 06:05:30;;;;;;;11.17;10.17;;;19.90;99.90;;;19.75;100.00;97912.88;4946793;29;20467;-67
2023/08/14 06:07:59;;;;;;;11.13;10.23;;;19.90;99.90;;;19.88;100.00;97927.94;4943811;28;20547;-68
2023/08/14 06:10:26;;;;;;;10.60;9.70;;;19.90;99.90;;;19.93;100.00;97933.44;4940264;29;20542;-68
2023/08/14 06:12:53;;;;;;;10.90;9.80;;;20.00;99.90;;;19.93;100.00;97913.41;4932045;29;20856;-68
2023/08/14 06:15:24;;;;;;;10.17;9.33;;;20.00;99.90;;;19.96;100.00;97923.84;4944142;29;20458;-70
2023/08/14 06:17:52;;;;;;;9.70;8.90;;;20.10;99.90;;;20.05;100.00;97926.81;4950287;29;20473;-69
2023/08/14 06:20:19;;;;;;;10.40;9.40;;;20.10;99.90;;;20.06;100.00;97929.25;4941555;29;20456;-68
2023/08/14 06:22:47;;;;;;;12.10;9.43;;;20.10;99.90;;;20.24;100.00;97929.75;4932166;29;20455;-67
2023/08/14 06:25:16;;;;;;;10.87;9.80;;;20.20;99.90;;;20.30;100.00;97936.84;4931561;29;20510;-69
2023/08/14 06:27:44;;;;;;;9.40;8.50;;;20.20;99.90;;;20.38;100.00;97939.00;4937185;29;20501;-68
2023/08/14 06:30:12;;;;;;;11.33;8.73;;;20.30;99.90;;;20.55;100.00;97940.59;4941961;28;20518;-69
2023/08/14 06:32:41;;;;;;;8.80;8.10;;;20.40;99.90;;;20.52;100.00;97949.38;4941102;28;20443;-69
2023/08/14 06:35:10;;;;;;;11.10;8.53;;;20.40;99.90;;;20.50;100.00;97957.06;4941669;28;20459;-68
2023/08/14 06:37:37;;;;;;;9.17;8.33;;;20.50;99.90;;;20.97;100.00;97960.38;4948771;29;20457;-69
2023/08/14 06:40:06;;;;;;;8.80;8.00;;;20.70;99.90;;;21.35;98.71;97968.06;4938459;29;20458;-68
2023/08/14 06:42:33;;;;;;;10.37;7.67;;;21.00;99.90;;;21.57;97.13;97964.03;4935304;29;20481;-68
2023/08/14 06:45:00;;;;;;;8.20;7.40;;;21.20;99.90;;;21.72;94.45;97969.41;4936005;29;20461;-69
2023/08/14 06:47:27;;;;;;;8.70;7.80;;;21.50;99.90;;;21.29;96.85;97969.19;4947246;29;20482;-71
2023/08/14 06:49:56;;;;;;;6.97;5.50;;;21.60;99.90;;;21.59;93.37;97959.06;4942352;29;20483;-71
2023/08/14 06:52:23;;;;;;;5.30;4.87;;;21.80;99.30;;;21.53;91.64;97922.53;4948268;29;20975;-68
2023/08/14 06:54:50;;;;;;;6.10;5.60;;;21.80;98.50;;;21.78;90.90;97967.41;4936000;29;20461;-69
2023/08/14 06:57:17;;;;;;;5.73;5.33;;;21.80;97.90;;;21.66;93.14;97967.81;4935307;29;20473;-69
2023/08/14 06:59:44;;;;;;;12.90;5.77;;;21.70;99.40;;;21.70;92.69;97963.38;4936029;29;20448;-68
2023/08/14 07:02:12;;;;;;;7.23;5.33;;;21.60;99.40;;;21.81;91.04;97966.03;4934148;29;20487;-68
2023/08/14 07:04:39;;;;;;;5.83;5.43;;;21.70;98.80;;;21.52;93.20;97951.97;4940271;29;20473;-68
2023/08/14 07:07:07;;;;;;;5.90;5.50;;;21.60;99.40;;;21.34;93.88;97949.94;4964432;28;20856;-69
2023/08/14 07:09:35;;;;;;;7.10;5.97;;;21.40;99.60;;;21.48;93.35;97961.06;4936672;29;20975;-68
2023/08/14 07:12:02;;;;;;;6.20;5.80;;;21.40;99.90;;;21.05;95.47;97964.47;4935794;29;20465;-71
2023/08/14 07:14:29;;;;;;;6.67;5.77;;;21.40;99.80;;;21.07;96.34;97962.25;4935671;29;20459;-70
2023/08/14 07:16:57;;;;;;;6.20;5.60;;;21.40;99.90;;;21.13;96.49;97961.09;4935574;29;20456;-69
2023/08/14 07:19:24;;;;;;;6.60;6.00;;;21.40;99.90;;;21.33;95.42;97976.59;4935466;29;20488;-68
2023/08/14 07:21:51;;;;;;;7.80;6.53;;;21.50;99.90;;;21.42;96.84;97992.47;4948879;28;20984;-69
2023/08/14 07:24:20;;;;;;;7.80;7.10;;;21.70;99.90;;;21.50;96.42;97978.09;4962396;28;20956;-68
2023/08/14 07:26:47;;;;;;;7.00;6.30;;;21.80;99.90;;;21.85;93.50;97978.06;4935736;29;20491;-68
2023/08/14 07:29:14;;;;;;;6.63;6.03;;;21.80;99.90;;;21.91;92.37;97975.00;4935385;29;20461;-69
2023/08/14 07:31:41;;;;;;;6.93;6.40;;;21.90;99.20;;;22.00;92.56;97966.91;4942724;29;20478;-68
2023/08/14 07:34:08;;;;;;;6.00;5.50;;;22.00;99.30;;;22.03;91.75;97960.03;4949743;29;20507;-69
2023/08/14 07:36:36;;;;;;;7.53;6.90;;;22.10;98.70;;;21.88;91.12;97955.50;4949882;28;20819;-68
2023/08/14 07:39:03;;;;;;;6.43;5.87;;;22.00;97.70;;;22.05;89.88;97953.09;4937900;29;20465;-68
2023/08/14 07:41:32;;;;;;;7.83;6.97;;;22.00;97.70;;;22.31;89.68;97960.25;4946901;29;21061;-68
2023/08/14 07:43:59;;;;;;;7.30;6.60;;;22.20;98.00;;;22.17;86.91;97907.84;4934740;29;20461;-71
2023/08/14 07:46:26;;;;;;;8.73;5.70;;;22.40;96.80;;;22.47;86.43;97983.75;4949466;28;20958;-69
2023/08/14 07:48:53;;;;;;;7.83;6.73;;;22.60;96.10;;;22.79;86.36;97978.63;4940773;29;20467;-69
2023/08/14 07:51:20;;;;;;;7.00;6.33;;;22.70;96.40;;;22.68;86.26;97986.22;4947268;29;20457;-67
2023/08/14 07:53:47;;;;;;;7.07;6.37;;;22.70;95.70;;;22.87;85.60;97983.47;4940896;29;20468;-70
2023/08/14 07:56:15;;;;;;;6.93;5.83;;;22.80;95.80;;;23.13;83.27;97982.28;4943567;28;20515;-68
2023/08/14 07:58:43;;;;;;;5.97;5.43;;;22.90;95.20;;;23.15;83.05;97994.63;4953808;29;20532;-69
2023/08/14 08:01:10;;;;;;;6.07;5.57;;;23.00;94.90;;;23.33;82.54;97992.19;4943293;29;20478;-68
2023/08/14 08:03:37;;;;;;;6.23;5.83;;;23.10;94.90;;;23.39;80.63;97993.72;4951412;28;20462;-69
2023/08/14 08:06:05;;;;;;;7.23;6.63;;;23.20;94.30;;;23.15;80.97;97934.03;4937042;29;20454;-70
2023/08/14 08:08:33;;;;;;;6.23;5.60;;;23.30;94.40;;;23.72;79.92;97987.41;4941542;28;20463;-72
2023/08/14 08:11:00;;;;;;;5.90;5.50;;;23.50;94.20;;;23.90;79.47;97980.19;4940943;29;20515;-69
2023/08/14 08:13:27;;;;;;;5.70;5.30;;;23.70;94.10;;;23.88;78.50;97982.41;4945660;29;20901;-70
2023/08/14 08:15:56;;;;;;;6.60;5.87;;;23.70;93.50;;;24.07;77.63;97985.13;4946814;29;21144;-69
2023/08/14 08:18:23;;;;;;;6.40;5.90;;;23.80;93.40;;;24.17;76.93;97989.63;4950696;28;20518;-70
2023/08/14 08:20:50;;;;;;;5.97;5.47;;;24.00;93.10;;;24.10;77.47;97994.75;4937201;29;20462;-69
2023/08/14 08:23:17;;;;;;;6.93;5.33;;;24.00;93.10;;;24.01;76.71;97997.38;4950074;29;20948;-69
2023/08/14 08:25:44;;;;;;;6.67;5.50;;;24.00;92.80;;;24.29;76.75;97991.91;4955758;28;20453;-69
2023/08/14 08:28:12;;;;;;;9.37;6.33;;;24.00;92.90;;;24.41;75.93;97997.69;4937314;28;20500;-69
2023/08/14 08:30:39;;;;;;;5.67;5.07;;;24.20;92.90;;;24.25;77.24;97991.69;4965454;28;20454;-69
2023/08/14 08:33:08;;;;;;;5.93;5.43;;;24.20;92.90;;;23.93;76.75;97935.44;4948850;28;20878;-69
2023/08/14 08:35:35;;;;;;;6.67;6.10;;;24.20;92.70;;;24.43;75.69;97991.88;4951957;29;20505;-70
2023/08/14 08:38:02;;;;;;;7.13;5.53;;;24.30;92.60;;;24.56;74.87;97991.03;4944448;29;21018;-69
2023/08/14 08:40:30;;;;;;;6.00;4.67;;;24.40;92.40;;;24.73;74.77;98000.63;4944026;29;20467;-69
2023/08/14 08:42:58;;;;;;;6.00;5.50;;;24.50;92.40;;;24.81;73.60;98001.88;4945073;29;20489;-70
2023/08/14 08:45:32;;;;;;;6.37;5.70;;;24.60;92.20;;;24.90;73.37;97992.53;4941300;29;20454;-69
2023/08/14 08:48:02;;;;;;;6.10;5.60;;;24.70;92.10;;;24.64;73.65;97992.25;4948899;28;20458;-71
2023/08/14 08:50:31;;;;;;;6.60;4.93;;;24.70;91.80;;;24.72;74.22;97994.31;4952652;28;20478;-69
2023/08/14 08:52:59;;;;;;;6.50;5.90;;;24.60;92.00;;;24.78;72.82;97975.69;4931618;29;20447;-71
2023/08/14 08:55:26;;;;;;;6.13;5.30;;;24.70;91.90;;;25.27;72.04;97980.66;4948693;28;21016;-70
2023/08/14 08:57:56;;;;;;;5.90;5.27;;;25.00;91.90;;;25.06;71.12;97945.22;4948229;28;20477;-70
2023/08/14 09:00:23;;;;;;;5.10;4.70;;;25.10;91.50;;;25.53;70.49;97982.81;4951326;29;20866;-70
2023/08/14 09:02:51;;;;;;;6.93;5.00;;;25.30;91.40;;;25.57;69.51;97992.13;4951120;29;20473;-70
2023/08/14 09:05:18;;;;;;;5.13;4.73;;;25.40;91.10;;;25.16;70.16;97991.97;4944669;28;20948;-69
2023/08/14 09:07:47;;;;;;;5.30;4.90;;;25.30;90.90;;;25.43;69.74;97994.91;4942376;29;20467;-70
2023/08/14 09:10:14;;;;;;;5.90;5.40;;;25.40;90.90;;;25.64;69.65;97984.19;4949515;28;20871;-69
2023/08/14 09:12:41;;;;;;;6.10;5.60;;;25.50;91.00;;;25.98;68.70;97995.78;4932392;29;20503;-69
2023/08/14 09:15:10;;;;;;;5.90;5.33;;;25.80;90.90;;;25.90;68.30;97991.81;4947873;28;20817;-71
2023/08/14 09:17:37;;;;;;;4.73;4.43;;;26.10;90.50;;;26.53;66.27;97989.00;4933639;29;20467;-70
2023/08/14 09:20:06;;;;;;;6.07;5.63;;;26.50;90.20;;;26.68;64.45;97984.13;4942083;28;20471;-69
2023/08/14 09:22:33;;;;;;;5.00;4.60;;;26.70;89.10;;;26.52;65.17;97984.59;4956889;28;20484;-70
2023/08/14 09:25:02;;;;;;;4.93;4.53;;;26.90;88.60;;;27.00;64.36;97991.22;4944140;28;20458;-70
2023/08/14 09:27:29;;;;;;;5.50;5.10;;;27.20;88.60;;;27.45;62.70;97994.81;4933435;29;20465;-70
2023/08/14 09:29:56;;;;;;;5.03;4.63;;;27.40;87.80;;;27.47;61.48;97978.63;4948300;28;20460;-73
2023/08/14 09:32:25;;;;;;;4.50;4.20;;;27.40;87.00;;;27.82;61.15;97988.84;4941468;28;20527;-70
2023/08/14 09:34:59;;;;;;;5.50;5.10;;;27.70;87.10;;;27.97;60.73;97991.09;4944882;28;20455;-69
2023/08/14 09:37:27;;;;;;;5.47;5.07;;;27.80;86.70;;;28.00;60.57;97984.91;4946708;29;20450;-71
2023/08/14 09:40:16;;;;;;;5.43;5.03;;;27.90;86.40;;;27.73;59.49;97991.66;4951887;28;20516;-69
2023/08/14 09:42:44;;;;;;;5.60;5.20;;;27.90;85.10;;;27.23;61.19;97995.78;4930981;29;20500;-69
2023/08/14 09:45:13;;;;;;;5.00;4.60;;;27.60;85.10;;;27.60;61.02;97987.94;4933362;29;20488;-71
2023/08/14 09:47:43;;;;;;;5.00;4.50;;;27.60;85.50;;;27.93;59.06;97989.34;4933570;29;20475;-70
2023/08/14 09:50:12;;;;;;;4.70;4.40;;;27.90;84.70;;;27.75;60.11;97988.56;4937762;29;20544;-69
2023/08/14 09:52:41;;;;;;;5.40;5.00;;;27.70;85.10;;;28.42;57.00;97988.97;4957615;28;20451;-71
2023/08/14 09:55:09;;;;;;;5.20;4.70;;;28.10;83.70;;;28.92;56.16;97989.38;4933804;29;20505;-68
2023/08/14 09:57:38;;;;;;;5.47;4.83;;;28.50;83.60;;;29.44;54.50;97990.09;4946311;29;20481;-71
2023/08/14 10:00:07;;;;;;;4.37;4.07;;;28.90;82.50;;;29.78;52.76;97997.28;4941567;29;20494;-71
2023/08/14 10:02:37;;;;;;;5.20;4.80;;;29.40;81.10;;;29.86;53.90;97990.00;4943965;29;20469;-70
2023/08/14 10:05:10;;;;;;;4.30;4.00;;;29.80;80.90;;;30.02;53.08;97980.97;4939930;29;20458;-70
2023/08/14 10:07:40;;;;;;;5.40;4.90;;;30.00;80.10;;;30.26;52.83;97991.34;4949257;29;20458;-70
2023/08/14 10:10:11;;;;;;;4.53;4.13;;;30.30;79.20;;;30.23;51.96;97981.72;4951217;28;20459;-70
2023/08/14 10:12:46;;;;;;;5.27;4.70;;;30.40;78.30;;;29.37;53.49;97980.31;4954058;28;20494;-72
2023/08/14 10:15:18;;;;;;;5.00;4.13;;;30.00;77.70;;;29.20;54.40;97974.91;4936597;29;20461;-71
2023/08/14 10:17:51;;;;;;;4.70;4.30;;;29.50;78.60;;;28.87;54.98;97972.88;4949687;29;20458;-70